Terminal Aerodrome Forecast
Issued by NWS

Home | Current Version | Previous Version | Text Only | Print | Product List | Glossary On
Versions: 1 2 3 4 5 6 7 8 9 10 11 12 13 14 15 16 17 18 19 20 21 22 23
465
FTUS43 KJKL 200545 CCA
TAFSME
TAF COR
KSME 200545Z 2006/2106 VRB03KT 1/4SM FG BKN002
     FM201300 VRB03KT 3SM BR BKN004
     FM201500 VRB03KT P6SM SCT018=

USA.gov is the U.S. government's official web portal to all federal, state and local government web resources and services.